Pagrindinis puslapis
METAR-TAF:

METAR-TAF

Oro uostai :

Loei, Tailandas

platuma: 17-27N, ilguma: 101-44E, Aukštis: 253 m

Dabartinis oras

Ataskaita buvo paskelbta 41 minutes, ne 12:00 UTC
Vėjas 2 kt nuo kintamojo kryptimis
Temperatūra 24°C
Drėgmė 74%
Slėgis 1013 hPa
Matomumas 10 km arba daugiau
Mažai debesys ne aukštis 3000 ft

METAR: VTUL 151200Z VRB02KT 9999 FEW030 24/19 Q1013 NOSIG

Laikas: 19:41 (12:41 UTC)

Prognozė

Ataskaita buvo paskelbta 1 valandą ir 41 minutes, ne 11:00 UTC
Prognozė galioja nuo 15 metu 12 UTC su 16 metu 12 UTC
Vėjas 5 kt iš Rytų/Šiaurės Rytų
Matomumas: 9000 m
Mažai debesys ne aukštis 3500 ft

TAF: VTUL 151100Z 1512/1612 07005KT 9000 FEW035

Orai ataskaitas ir orų prognozės (METAR, TAF).

turimą stotys yra geltonos ir raudonos taškus žemėlapyje.

Perkelti pele per norėdami pamatyti stoties vardą.

Tada spustelėkite, norėdami matyti oro stebėjimo ir prognozės.

Norėdami pakeisti žemėlapį: spustelėkite ant žalios mygtukų su juodo kryžiaus žemyn,; žalią mygtuką su brūkšneliu, jei norite nutolinti; arba žalių rodyklių gretimoms žemėlapius.


METAR-TAF: